• Join FlightAware (Why Join?)
  • Login
  • US Flag 
01:45AM EDT


 

Airport Tracker/Info


-or-


 

Live Flight TrackerFlight Track Log ✈ SWA286 ✈ 30-Aug-2013 ✈ KHOU - KTPA

Flight Track Log - Related Links

Times and Time Zones

All times are in EDT time to prevent confusion due to time zone crossing. See the SWA286 flight status page for this flight to view local times or setup timezone preferences in your user account.

Time Position Orientation Groundspeed Altitude Reporting Facility
EDT Latitude Longitude Course Direction KTS MPH feet Rate Location/Type
09:30PM 29.6314 -95.2919 149° Southeast 148 170 1,000  Level Houston Center
09:31PM 29.5956 -95.2675 149° Southeast 197 227 2,500 1,860 Climbing Houston Center
09:32PM 29.5817 -95.2319 114° Southeast 209 241 4,000 2,520 Climbing Houston Center
09:33PM 29.5922 -95.1558 81° East 257 296 6,800 2,880 Climbing Houston Center
09:34PM 29.6339 -95.0850 56° Northeast 277 319 9,900 2,340 Climbing Houston Center
09:35PM 29.6486 -94.9581 82° East 326 375 11,700 2,040 Climbing Houston Center
09:36PM 29.6633 -94.8356 82° East 368 423 14,100 2,400 Climbing Houston Center
09:37PM 29.6786 -94.7067 82° East 399 459 16,600 2,400 Climbing Houston Center
09:38PM 29.6942 -94.5733 82° East 416 479 19,000 2,160 Climbing Houston Center
09:39PM 29.7089 -94.4364 83° East 426 490 21,100 1,920 Climbing Houston Center
09:40PM 29.6911 -94.2956 98° East 447 514 23,000 1,680 Climbing Houston Center
09:41PM 29.6706 -94.1575 100° East 449 517 24,600 1,620 Climbing Houston Center
09:42PM 29.6489 -94.0114 100° East 460 529 26,300 1,740 Climbing Houston Center
09:43PM 29.6267 -93.8633 100° East 469 540 28,200 2,040 Climbing Houston Center
09:44PM 29.5997 -93.6897 100° East 466 536 30,500 1,860 Climbing Houston Center
09:45PM 29.5767 -93.5456 100° East 464 534 32,100 1,560 Climbing Houston Center
09:46PM 29.5536 -93.3994 100° East 467 537 33,700 1,560 Climbing Houston Center
09:47PM 29.5311 -93.2536 100° East 467 537 35,300 1,380 Climbing Houston Center
09:48PM 29.5089 -93.1086 100° East 465 535 36,600 1,200 Climbing Houston Center
09:49PM 29.4858 -92.9639 100° East 464 534 37,800 1,080 Climbing Houston Center
09:50PM 29.4631 -92.8206 100° East 460 529 38,900 540 Climbing Houston Center
09:51PM 29.4400 -92.6778 100° East 458 527 39,000  Climbing Houston Center
09:52PM 29.4156 -92.5369 101° East 454 522 39,000  Level Houston Center
09:53PM 29.3894 -92.3650 100° East 457 526 39,000  Level Houston Center
09:54PM 29.3664 -92.2250 101° East 450 518 39,000  Level Houston Center
09:55PM 29.3442 -92.0858 100° East 448 516 39,000  Level Houston Center
09:56PM 29.3203 -91.9450 101° East 450 518 39,000  Level Houston Center
09:57PM 29.2956 -91.8039 101° East 453 521 39,000  Level Houston Center
09:58PM 29.2750 -91.6728 100° East 456 525 39,000  Level Houston Center
09:59PM 29.2503 -91.5306 101° East 457 526 39,000  Level Houston Center
10:00PM 29.2203 -91.3600 101° East 457 526 39,000  Level Houston Center
10:01PM 29.1964 -91.2178 101° East 458 527 39,000  Level Houston Center
10:02PM 29.1719 -91.0744 101° East 460 529 39,000  Level Houston Center
10:03PM 29.1458 -90.9325 102° East 458 527 39,000  Level Houston Center
10:04PM 29.1208 -90.7892 101° East 459 528 39,000  Level Houston Center
10:05PM 29.0964 -90.6489 101° East 455 524 39,000  Level Houston Center
10:06PM 29.0706 -90.5083 102° East 455 524 39,000  Level Houston Center
10:07PM 29.0458 -90.3686 101° East 452 520 39,000  Level Houston Center
10:08PM 29.0214 -90.2289 101° East 450 518 39,000  Level Houston Center
10:09PM 28.9953 -90.0886 102° East 453 521 39,000  Level Houston Center
10:10PM 28.9700 -89.9494 102° East 452 520 39,000  Level Houston Center
10:11PM 28.9389 -89.7811 102° East 453 521 39,000  Level Houston Center
10:12PM 28.9128 -89.6408 102° East 453 521 39,000  Level Houston Center
10:13PM 28.8869 -89.4986 102° East 459 528 39,000  Level Houston Center
10:14PM 28.8603 -89.3578 102° East 458 527 39,000  Level Houston Center
10:15PM 28.8347 -89.2189 102° East 452 520 39,000  Level Houston Center
10:16PM 28.8081 -89.0778 102° East 455 524 39,000  Level Houston Center
10:17PM 28.7811 -88.9386 102° East 454 522 39,000  Level Houston Center
10:18PM 28.7536 -88.7986 103° East 455 524 39,000  Level Houston Center
10:19PM 28.7272 -88.6583 102° East 456 525 39,000  Level Houston Center
10:20PM 28.7000 -88.5172 102° East 456 525 39,000  Level Houston Center
10:22PM 28.6736 -88.3761 102° East 458 527 39,000  Level Houston Center
10:23PM 28.6447 -88.2339 103° East 460 529 39,000  Level Houston Center
10:24PM 28.6122 -88.0697 103° East 463 533 39,000  Level Houston Center
10:25PM 28.5839 -87.9306 103° East 456 525 39,000  Level Houston Center
10:26PM 28.5564 -87.7942 103° East 449 517 39,000  Level Houston Center
10:27PM 28.5289 -87.6569 103° East 447 514 39,000  Level Houston Center
10:28PM 28.5014 -87.5186 103° East 450 518 39,000  Level Houston Center
10:29PM 28.4739 -87.3817 103° East 447 514 39,000 -180 Level Houston Center
10:30PM 28.4464 -87.2456 103° East 446 513 38,700 -600 Descending Houston Center
10:31PM 28.4183 -87.1067 103° East 449 517 37,800 -960 Descending Houston Center
10:32PM 28.3894 -86.9683 103° East 452 520 36,800 -960 Descending Houston Center
10:33PM 28.3614 -86.8303 103° East 450 518 35,900 -840 Descending Houston Center
10:34PM 28.3439 -86.6614 97° East 450 518 35,100 -420 Descending Houston Center
10:35PM 28.3231 -86.4858 98° East 452 520 35,000 -60 Descending Jacksonville Center
10:36PM 28.3100 -86.3511 96° East 446 513 35,000  Level Jacksonville Center
10:37PM 28.2931 -86.2067 98° East 451 519 35,000  Level Jacksonville Center
10:38PM 28.2775 -86.0694 97° East 445 512 35,000  Level Jacksonville Center
10:39PM 28.2603 -85.9231 98° East 450 518 35,000  Level Jacksonville Center
10:40PM 28.2447 -85.7811 97° East 455 524 35,000  Level Jacksonville Center
10:42PM 28.2100 -85.4517 97° East 466 536 35,000  Level Miami Center
10:43PM 28.1872 -85.3064 100° East 466 536 35,000  Level Miami Center
10:44PM 28.1706 -85.1642 98° East 466 536 35,000  Level Miami Center
10:45PM 28.1561 -85.0197 96° East 466 536 35,000  Level Miami Center
10:46PM 28.1369 -84.8772 99° East 466 536 35,000  Level Miami Center
10:47PM 28.1200 -84.7328 98° East 466 536 35,000  Level Miami Center
10:48PM 28.1006 -84.5928 99° East 460 529 35,000  Level Miami Center
10:49PM 28.0831 -84.4528 98° East 448 516 35,000  Level Miami Center
10:50PM 28.0667 -84.3250 98° East 455 524 35,000 -1,080 Level Miami Center
10:51PM 28.0450 -84.1825 100° East 455 524 32,900 -2,940 Descending Miami Center
10:52PM 28.0294 -84.0381 97° East 455 524 29,200 -3,600 Descending Miami Center
10:53PM 28.0072 -83.8958 100° East 455 524 25,700 -3,240 Descending Miami Center
10:54PM 27.9931 -83.7564 97° East 455 524 22,800 -2,880 Descending Miami Center
10:55PM 27.9744 -83.6214 99° East 442 509 20,000 -2,880 Descending Miami Center
10:56PM 27.9533 -83.4956 101° East 428 493 17,200 -2,820 Descending Miami Center
10:57PM 27.9403 -83.3681 97° East 412 474 14,400 -2,820 Descending Miami Center
10:58PM 27.9375 -83.2458 91° East 398 458 11,500 -2,220 Descending Miami Center
10:59PM 27.9428 -83.1289 87° East 384 442 9,900 -1,020 Descending Miami Center
11:00PM 27.9489 -83.0328 86° East 344 396 9,500 -960 Descending Miami Center
11:01PM 27.9653 -82.9444 78° East 306 352 8,100 -1,440 Descending Miami Center
11:02PM 27.9833 -82.8608 76° East 288 331 6,600 -1,440 Descending Miami Center
11:03PM 28.0014 -82.7772 76° East 275 316 5,300 -1,440 Descending Miami Center
11:04PM 28.0214 -82.6961 74° East 270 311 3,800 -1,380 Descending Miami Center
11:05PM 28.0394 -82.6122 76° East 270 311 2,500 -840 Descending Miami Center
11:06PM 28.0522 -82.5494 77° East 244 281 2,100 -900 Descending Miami Center
11:08PM 28.0167 -82.5333 158° South 129 148 400 -1,200 Descending Tampa TRACON
11:10PM 27.9755 -82.5332 180° South  Level Estimated
11:17PM 27.9755 -82.5332 19° North  Level Estimated